sensor_id;sensor_type;location;lat;lon;timestamp;P1;durP1;ratioP1;P2;durP2;ratioP2
31424;SDS011;18054;51.572;7.372;2023-10-08T00:02:34;19.83;;;4.78;;
31424;SDS011;18054;51.572;7.372;2023-10-08T00:05:03;12.07;;;4.68;;
31424;SDS011;18054;51.572;7.372;2023-10-08T00:07:30;10.45;;;4.93;;
31424;SDS011;18054;51.572;7.372;2023-10-08T00:09:58;13.88;;;4.95;;
31424;SDS011;18054;51.572;7.372;2023-10-08T00:12:25;12.93;;;5.07;;
31424;SDS011;18054;51.572;7.372;2023-10-08T00:14:55;16.52;;;4.68;;
31424;SDS011;18054;51.572;7.372;2023-10-08T00:17:26;15.07;;;4.90;;
31424;SDS011;18054;51.572;7.372;2023-10-08T00:19:54;19.10;;;5.30;;
31424;SDS011;18054;51.572;7.372;2023-10-08T00:22:27;20.17;;;4.68;;
31424;SDS011;18054;51.572;7.372;2023-10-08T00:24:55;14.20;;;4.68;;
31424;SDS011;18054;51.572;7.372;2023-10-08T00:27:24;14.88;;;5.50;;
31424;SDS011;18054;51.572;7.372;2023-10-08T00:32:19;21.88;;;5.43;;
31424;SDS011;18054;51.572;7.372;2023-10-08T00:34:48;12.90;;;4.35;;
31424;SDS011;18054;51.572;7.372;2023-10-08T00:37:17;12.52;;;4.63;;
31424;SDS011;18054;51.572;7.372;2023-10-08T00:39:44;14.05;;;4.57;;
31424;SDS011;18054;51.572;7.372;2023-10-08T00:42:12;13.65;;;6.07;;
31424;SDS011;18054;51.572;7.372;2023-10-08T00:44:39;8.43;;;4.30;;
31424;SDS011;18054;51.572;7.372;2023-10-08T00:47:15;11.10;;;4.90;;
31424;SDS011;18054;51.572;7.372;2023-10-08T00:49:44;13.48;;;5.25;;
31424;SDS011;18054;51.572;7.372;2023-10-08T00:52:35;16.67;;;5.57;;
31424;SDS011;18054;51.572;7.372;2023-10-08T00:55:20;18.73;;;5.07;;
31424;SDS011;18054;51.572;7.372;2023-10-08T00:57:55;12.05;;;4.82;;
31424;SDS011;18054;51.572;7.372;2023-10-08T01:00:24;13.70;;;5.60;;
31424;SDS011;18054;51.572;7.372;2023-10-08T01:03:01;14.98;;;5.00;;
31424;SDS011;18054;51.572;7.372;2023-10-08T01:05:30;22.02;;;5.57;;
31424;SDS011;18054;51.572;7.372;2023-10-08T01:08:15;12.68;;;5.20;;
31424;SDS011;18054;51.572;7.372;2023-10-08T01:11:18;10.85;;;4.82;;
31424;SDS011;18054;51.572;7.372;2023-10-08T01:13:48;11.13;;;5.18;;
31424;SDS011;18054;51.572;7.372;2023-10-08T01:16:16;11.27;;;4.45;;
31424;SDS011;18054;51.572;7.372;2023-10-08T01:18:44;18.50;;;4.90;;
31424;SDS011;18054;51.572;7.372;2023-10-08T01:21:17;19.88;;;5.13;;
31424;SDS011;18054;51.572;7.372;2023-10-08T01:24:01;11.57;;;4.70;;
31424;SDS011;18054;51.572;7.372;2023-10-08T01:26:32;15.88;;;5.18;;
31424;SDS011;18054;51.572;7.372;2023-10-08T01:31:33;11.98;;;5.00;;
31424;SDS011;18054;51.572;7.372;2023-10-08T01:34:00;14.07;;;5.15;;
31424;SDS011;18054;51.572;7.372;2023-10-08T01:36:30;16.58;;;5.18;;
31424;SDS011;18054;51.572;7.372;2023-10-08T01:38:58;14.05;;;4.90;;
31424;SDS011;18054;51.572;7.372;2023-10-08T01:41:29;12.23;;;5.18;;
31424;SDS011;18054;51.572;7.372;2023-10-08T01:43:57;15.02;;;4.97;;
31424;SDS011;18054;51.572;7.372;2023-10-08T01:46:25;16.00;;;5.35;;
31424;SDS011;18054;51.572;7.372;2023-10-08T01:48:54;15.25;;;5.40;;
31424;SDS011;18054;51.572;7.372;2023-10-08T01:51:29;21.27;;;5.68;;
31424;SDS011;18054;51.572;7.372;2023-10-08T01:54:05;18.50;;;5.95;;
31424;SDS011;18054;51.572;7.372;2023-10-08T01:56:39;20.08;;;5.82;;
31424;SDS011;18054;51.572;7.372;2023-10-08T01:59:09;14.55;;;5.18;;
31424;SDS011;18054;51.572;7.372;2023-10-08T02:01:38;14.05;;;4.80;;
31424;SDS011;18054;51.572;7.372;2023-10-08T02:04:06;19.30;;;5.10;;
31424;SDS011;18054;51.572;7.372;2023-10-08T02:06:34;13.60;;;4.80;;
31424;SDS011;18054;51.572;7.372;2023-10-08T02:09:02;16.77;;;5.50;;
31424;SDS011;18054;51.572;7.372;2023-10-08T02:11:42;13.88;;;5.90;;
31424;SDS011;18054;51.572;7.372;2023-10-08T02:14:10;16.83;;;5.00;;
31424;SDS011;18054;51.572;7.372;2023-10-08T02:16:38;19.83;;;6.18;;
31424;SDS011;18054;51.572;7.372;2023-10-08T02:19:06;21.35;;;5.57;;
31424;SDS011;18054;51.572;7.372;2023-10-08T02:21:37;26.60;;;5.55;;
31424;SDS011;18054;51.572;7.372;2023-10-08T02:24:08;16.48;;;5.43;;
31424;SDS011;18054;51.572;7.372;2023-10-08T02:26:37;11.00;;;4.45;;
31424;SDS011;18054;51.572;7.372;2023-10-08T02:29:07;14.30;;;5.57;;
31424;SDS011;18054;51.572;7.372;2023-10-08T02:31:38;20.45;;;5.25;;
31424;SDS011;18054;51.572;7.372;2023-10-08T02:34:06;12.70;;;5.28;;
31424;SDS011;18054;51.572;7.372;2023-10-08T02:36:35;12.85;;;4.47;;
31424;SDS011;18054;51.572;7.372;2023-10-08T02:39:04;21.48;;;6.13;;
31424;SDS011;18054;51.572;7.372;2023-10-08T02:41:34;14.18;;;5.50;;
31424;SDS011;18054;51.572;7.372;2023-10-08T02:44:05;29.25;;;5.53;;
31424;SDS011;18054;51.572;7.372;2023-10-08T02:46:33;25.45;;;5.30;;
31424;SDS011;18054;51.572;7.372;2023-10-08T02:49:03;17.98;;;5.57;;
31424;SDS011;18054;51.572;7.372;2023-10-08T02:51:32;20.60;;;5.32;;
31424;SDS011;18054;51.572;7.372;2023-10-08T02:54:01;17.70;;;5.63;;
31424;SDS011;18054;51.572;7.372;2023-10-08T02:56:31;23.40;;;6.25;;
31424;SDS011;18054;51.572;7.372;2023-10-08T02:58:59;20.23;;;5.70;;
31424;SDS011;18054;51.572;7.372;2023-10-08T03:01:29;14.07;;;5.65;;
31424;SDS011;18054;51.572;7.372;2023-10-08T03:04:00;14.35;;;5.35;;
31424;SDS011;18054;51.572;7.372;2023-10-08T03:06:34;16.17;;;5.43;;
31424;SDS011;18054;51.572;7.372;2023-10-08T03:09:04;13.40;;;5.28;;
31424;SDS011;18054;51.572;7.372;2023-10-08T03:11:34;22.33;;;5.32;;
31424;SDS011;18054;51.572;7.372;2023-10-08T03:14:03;13.73;;;5.43;;
31424;SDS011;18054;51.572;7.372;2023-10-08T03:16:32;16.95;;;5.25;;
31424;SDS011;18054;51.572;7.372;2023-10-08T03:19:01;14.70;;;4.75;;
31424;SDS011;18054;51.572;7.372;2023-10-08T03:21:32;21.88;;;6.00;;
31424;SDS011;18054;51.572;7.372;2023-10-08T03:24:17;13.68;;;4.97;;
31424;SDS011;18054;51.572;7.372;2023-10-08T03:27:02;17.65;;;5.28;;
31424;SDS011;18054;51.572;7.372;2023-10-08T03:29:35;22.10;;;6.07;;
31424;SDS011;18054;51.572;7.372;2023-10-08T03:32:11;14.98;;;5.18;;
31424;SDS011;18054;51.572;7.372;2023-10-08T03:34:45;14.13;;;4.85;;
31424;SDS011;18054;51.572;7.372;2023-10-08T03:37:14;17.02;;;5.35;;
31424;SDS011;18054;51.572;7.372;2023-10-08T03:39:55;12.25;;;4.88;;
31424;SDS011;18054;51.572;7.372;2023-10-08T03:42:33;16.00;;;5.68;;
31424;SDS011;18054;51.572;7.372;2023-10-08T03:45:07;16.42;;;5.78;;
31424;SDS011;18054;51.572;7.372;2023-10-08T03:47:39;15.55;;;5.05;;
31424;SDS011;18054;51.572;7.372;2023-10-08T03:50:13;17.42;;;5.63;;
31424;SDS011;18054;51.572;7.372;2023-10-08T03:52:44;20.20;;;5.15;;
31424;SDS011;18054;51.572;7.372;2023-10-08T03:55:13;16.83;;;4.95;;
31424;SDS011;18054;51.572;7.372;2023-10-08T03:57:48;19.92;;;6.00;;
31424;SDS011;18054;51.572;7.372;2023-10-08T04:00:23;23.38;;;6.47;;
31424;SDS011;18054;51.572;7.372;2023-10-08T04:02:59;12.25;;;5.43;;
31424;SDS011;18054;51.572;7.372;2023-10-08T04:05:35;20.15;;;5.30;;
31424;SDS011;18054;51.572;7.372;2023-10-08T04:08:16;14.25;;;5.13;;
31424;SDS011;18054;51.572;7.372;2023-10-08T04:10:51;13.18;;;4.78;;
31424;SDS011;18054;51.572;7.372;2023-10-08T04:13:39;15.50;;;5.55;;
31424;SDS011;18054;51.572;7.372;2023-10-08T04:16:14;10.05;;;4.53;;
31424;SDS011;18054;51.572;7.372;2023-10-08T04:18:47;18.27;;;5.82;;
31424;SDS011;18054;51.572;7.372;2023-10-08T04:21:17;17.52;;;7.05;;
31424;SDS011;18054;51.572;7.372;2023-10-08T04:23:47;14.27;;;5.43;;
31424;SDS011;18054;51.572;7.372;2023-10-08T04:26:18;18.80;;;5.70;;
31424;SDS011;18054;51.572;7.372;2023-10-08T04:28:50;12.23;;;5.38;;
31424;SDS011;18054;51.572;7.372;2023-10-08T04:31:21;14.00;;;5.20;;
31424;SDS011;18054;51.572;7.372;2023-10-08T04:33:52;16.25;;;5.60;;
31424;SDS011;18054;51.572;7.372;2023-10-08T04:36:20;15.38;;;5.88;;
31424;SDS011;18054;51.572;7.372;2023-10-08T04:38:48;24.02;;;5.57;;
31424;SDS011;18054;51.572;7.372;2023-10-08T04:41:20;20.15;;;6.00;;
31424;SDS011;18054;51.572;7.372;2023-10-08T04:43:54;27.63;;;6.20;;
31424;SDS011;18054;51.572;7.372;2023-10-08T04:46:22;14.23;;;5.60;;
31424;SDS011;18054;51.572;7.372;2023-10-08T04:49:15;14.20;;;5.38;;
31424;SDS011;18054;51.572;7.372;2023-10-08T04:51:54;14.43;;;5.38;;
31424;SDS011;18054;51.572;7.372;2023-10-08T04:54:24;17.17;;;5.70;;
31424;SDS011;18054;51.572;7.372;2023-10-08T04:56:56;26.10;;;6.43;;
31424;SDS011;18054;51.572;7.372;2023-10-08T04:59:26;16.95;;;5.82;;
31424;SDS011;18054;51.572;7.372;2023-10-08T05:01:59;17.38;;;5.45;;
31424;SDS011;18054;51.572;7.372;2023-10-08T05:04:47;19.77;;;5.17;;
31424;SDS011;18054;51.572;7.372;2023-10-08T05:07:33;18.95;;;5.75;;
31424;SDS011;18054;51.572;7.372;2023-10-08T05:10:21;19.83;;;5.97;;
31424;SDS011;18054;51.572;7.372;2023-10-08T05:13:14;27.95;;;6.38;;
31424;SDS011;18054;51.572;7.372;2023-10-08T05:15:56;30.00;;;6.32;;
31424;SDS011;18054;51.572;7.372;2023-10-08T05:18:37;23.85;;;6.00;;
31424;SDS011;18054;51.572;7.372;2023-10-08T05:21:34;17.23;;;5.90;;
31424;SDS011;18054;51.572;7.372;2023-10-08T05:24:18;20.45;;;6.03;;
31424;SDS011;18054;51.572;7.372;2023-10-08T05:26:54;24.00;;;6.50;;
31424;SDS011;18054;51.572;7.372;2023-10-08T05:29:47;20.95;;;6.38;;
31424;SDS011;18054;51.572;7.372;2023-10-08T05:32:37;14.95;;;6.10;;
31424;SDS011;18054;51.572;7.372;2023-10-08T05:35:12;33.53;;;7.88;;
31424;SDS011;18054;51.572;7.372;2023-10-08T05:38:16;22.63;;;6.38;;
31424;SDS011;18054;51.572;7.372;2023-10-08T05:40:50;21.02;;;6.78;;
31424;SDS011;18054;51.572;7.372;2023-10-08T05:43:39;21.50;;;6.78;;
31424;SDS011;18054;51.572;7.372;2023-10-08T05:46:29;17.92;;;6.75;;
31424;SDS011;18054;51.572;7.372;2023-10-08T05:49:13;17.23;;;5.78;;
31424;SDS011;18054;51.572;7.372;2023-10-08T05:52:04;22.10;;;6.70;;
31424;SDS011;18054;51.572;7.372;2023-10-08T05:54:52;26.10;;;6.47;;
31424;SDS011;18054;51.572;7.372;2023-10-08T05:57:37;22.17;;;5.60;;
31424;SDS011;18054;51.572;7.372;2023-10-08T06:00:07;23.98;;;6.78;;
31424;SDS011;18054;51.572;7.372;2023-10-08T06:02:52;21.27;;;6.35;;
31424;SDS011;18054;51.572;7.372;2023-10-08T06:05:36;26.65;;;6.78;;
31424;SDS011;18054;51.572;7.372;2023-10-08T06:08:12;30.13;;;7.15;;
31424;SDS011;18054;51.572;7.372;2023-10-08T06:10:42;18.52;;;6.15;;
31424;SDS011;18054;51.572;7.372;2023-10-08T06:13:13;27.02;;;8.32;;
31424;SDS011;18054;51.572;7.372;2023-10-08T06:15:43;17.10;;;6.03;;
31424;SDS011;18054;51.572;7.372;2023-10-08T06:18:15;21.25;;;6.90;;
31424;SDS011;18054;51.572;7.372;2023-10-08T06:20:43;22.77;;;7.32;;
31424;SDS011;18054;51.572;7.372;2023-10-08T06:23:10;24.73;;;6.97;;
31424;SDS011;18054;51.572;7.372;2023-10-08T06:25:39;28.63;;;6.07;;
31424;SDS011;18054;51.572;7.372;2023-10-08T06:28:22;18.73;;;6.78;;
31424;SDS011;18054;51.572;7.372;2023-10-08T06:30:51;14.88;;;6.63;;
31424;SDS011;18054;51.572;7.372;2023-10-08T06:33:20;20.40;;;7.22;;
31424;SDS011;18054;51.572;7.372;2023-10-08T06:35:48;19.55;;;6.32;;
31424;SDS011;18054;51.572;7.372;2023-10-08T06:38:28;25.23;;;6.68;;
31424;SDS011;18054;51.572;7.372;2023-10-08T06:40:57;19.95;;;5.50;;
31424;SDS011;18054;51.572;7.372;2023-10-08T06:43:28;17.77;;;4.43;;
31424;SDS011;18054;51.572;7.372;2023-10-08T06:45:55;6.82;;;3.00;;
31424;SDS011;18054;51.572;7.372;2023-10-08T06:48:24;4.43;;;2.10;;
31424;SDS011;18054;51.572;7.372;2023-10-08T06:50:55;8.23;;;2.35;;
31424;SDS011;18054;51.572;7.372;2023-10-08T06:53:24;8.20;;;1.83;;
31424;SDS011;18054;51.572;7.372;2023-10-08T06:55:52;13.75;;;2.30;;
31424;SDS011;18054;51.572;7.372;2023-10-08T06:58:22;12.80;;;2.53;;
31424;SDS011;18054;51.572;7.372;2023-10-08T07:03:19;9.85;;;2.13;;
31424;SDS011;18054;51.572;7.372;2023-10-08T07:05:47;8.40;;;1.90;;
31424;SDS011;18054;51.572;7.372;2023-10-08T07:08:24;7.68;;;1.48;;
31424;SDS011;18054;51.572;7.372;2023-10-08T07:10:53;12.02;;;2.55;;
31424;SDS011;18054;51.572;7.372;2023-10-08T07:13:22;6.60;;;1.60;;
31424;SDS011;18054;51.572;7.372;2023-10-08T07:15:51;6.03;;;2.28;;
31424;SDS011;18054;51.572;7.372;2023-10-08T07:20:53;14.98;;;1.90;;
31424;SDS011;18054;51.572;7.372;2023-10-08T07:23:21;7.18;;;1.65;;
31424;SDS011;18054;51.572;7.372;2023-10-08T07:25:52;5.85;;;1.92;;
31424;SDS011;18054;51.572;7.372;2023-10-08T07:28:23;4.47;;;1.98;;
31424;SDS011;18054;51.572;7.372;2023-10-08T07:30:52;5.35;;;2.33;;
31424;SDS011;18054;51.572;7.372;2023-10-08T07:33:19;9.48;;;2.15;;
31424;SDS011;18054;51.572;7.372;2023-10-08T07:35:53;4.22;;;2.13;;
31424;SDS011;18054;51.572;7.372;2023-10-08T07:38:38;13.95;;;1.60;;
31424;SDS011;18054;51.572;7.372;2023-10-08T07:41:08;3.13;;;1.48;;
31424;SDS011;18054;51.572;7.372;2023-10-08T07:43:38;4.30;;;1.48;;
31424;SDS011;18054;51.572;7.372;2023-10-08T07:46:06;4.18;;;2.08;;
31424;SDS011;18054;51.572;7.372;2023-10-08T07:48:33;2.60;;;1.60;;
31424;SDS011;18054;51.572;7.372;2023-10-08T07:51:02;4.60;;;1.88;;
31424;SDS011;18054;51.572;7.372;2023-10-08T07:53:30;3.67;;;1.95;;
31424;SDS011;18054;51.572;7.372;2023-10-08T07:56:05;10.63;;;5.50;;
31424;SDS011;18054;51.572;7.372;2023-10-08T07:58:34;13.45;;;4.80;;
31424;SDS011;18054;51.572;7.372;2023-10-08T08:01:03;6.60;;;3.35;;
31424;SDS011;18054;51.572;7.372;2023-10-08T08:03:32;12.85;;;3.45;;
31424;SDS011;18054;51.572;7.372;2023-10-08T08:06:04;6.20;;;3.03;;
31424;SDS011;18054;51.572;7.372;2023-10-08T08:08:33;6.25;;;3.00;;
31424;SDS011;18054;51.572;7.372;2023-10-08T08:11:02;4.18;;;1.88;;
31424;SDS011;18054;51.572;7.372;2023-10-08T08:13:33;3.00;;;1.60;;
31424;SDS011;18054;51.572;7.372;2023-10-08T08:16:01;1.92;;;0.85;;
31424;SDS011;18054;51.572;7.372;2023-10-08T08:18:43;4.57;;;0.93;;
31424;SDS011;18054;51.572;7.372;2023-10-08T08:23:43;0.95;;;0.50;;
31424;SDS011;18054;51.572;7.372;2023-10-08T08:26:15;2.58;;;0.60;;
31424;SDS011;18054;51.572;7.372;2023-10-08T08:28:56;2.83;;;0.63;;
31424;SDS011;18054;51.572;7.372;2023-10-08T08:31:26;4.97;;;0.93;;
31424;SDS011;18054;51.572;7.372;2023-10-08T08:33:57;2.92;;;0.90;;
31424;SDS011;18054;51.572;7.372;2023-10-08T08:36:29;2.88;;;0.93;;
31424;SDS011;18054;51.572;7.372;2023-10-08T08:38:59;4.55;;;2.17;;
31424;SDS011;18054;51.572;7.372;2023-10-08T08:41:27;4.60;;;1.83;;
31424;SDS011;18054;51.572;7.372;2023-10-08T08:43:54;6.65;;;2.53;;
31424;SDS011;18054;51.572;7.372;2023-10-08T08:46:27;6.13;;;2.35;;
31424;SDS011;18054;51.572;7.372;2023-10-08T08:48:54;6.03;;;2.42;;
31424;SDS011;18054;51.572;7.372;2023-10-08T08:51:23;12.15;;;4.70;;
31424;SDS011;18054;51.572;7.372;2023-10-08T08:53:50;11.52;;;4.50;;
31424;SDS011;18054;51.572;7.372;2023-10-08T08:56:20;29.15;;;4.47;;
31424;SDS011;18054;51.572;7.372;2023-10-08T08:58:49;8.13;;;3.38;;
31424;SDS011;18054;51.572;7.372;2023-10-08T09:01:16;6.45;;;2.58;;
31424;SDS011;18054;51.572;7.372;2023-10-08T09:03:44;5.22;;;2.50;;
31424;SDS011;18054;51.572;7.372;2023-10-08T09:06:14;13.50;;;3.67;;
31424;SDS011;18054;51.572;7.372;2023-10-08T09:08:42;11.00;;;4.03;;
31424;SDS011;18054;51.572;7.372;2023-10-08T09:11:13;8.98;;;3.05;;
31424;SDS011;18054;51.572;7.372;2023-10-08T09:13:43;8.60;;;3.00;;
31424;SDS011;18054;51.572;7.372;2023-10-08T09:16:11;11.40;;;2.22;;
31424;SDS011;18054;51.572;7.372;2023-10-08T09:18:40;6.18;;;1.70;;
31424;SDS011;18054;51.572;7.372;2023-10-08T09:21:13;8.48;;;1.88;;
31424;SDS011;18054;51.572;7.372;2023-10-08T09:23:41;5.20;;;1.80;;
31424;SDS011;18054;51.572;7.372;2023-10-08T09:26:13;4.53;;;1.33;;
31424;SDS011;18054;51.572;7.372;2023-10-08T09:28:45;2.40;;;1.10;;
31424;SDS011;18054;51.572;7.372;2023-10-08T09:31:14;3.97;;;1.27;;
31424;SDS011;18054;51.572;7.372;2023-10-08T09:33:43;3.08;;;1.20;;
31424;SDS011;18054;51.572;7.372;2023-10-08T09:36:20;3.33;;;1.20;;
31424;SDS011;18054;51.572;7.372;2023-10-08T09:38:58;6.18;;;1.75;;
31424;SDS011;18054;51.572;7.372;2023-10-08T09:41:26;4.13;;;1.13;;
31424;SDS011;18054;51.572;7.372;2023-10-08T09:43:55;3.88;;;1.30;;
31424;SDS011;18054;51.572;7.372;2023-10-08T09:46:24;3.53;;;0.95;;
31424;SDS011;18054;51.572;7.372;2023-10-08T09:48:55;13.35;;;1.80;;
31424;SDS011;18054;51.572;7.372;2023-10-08T09:51:26;1.63;;;0.88;;
31424;SDS011;18054;51.572;7.372;2023-10-08T09:53:57;7.32;;;1.30;;
31424;SDS011;18054;51.572;7.372;2023-10-08T09:56:28;3.55;;;1.17;;
31424;SDS011;18054;51.572;7.372;2023-10-08T09:58:57;5.38;;;1.30;;
31424;SDS011;18054;51.572;7.372;2023-10-08T10:01:25;4.97;;;1.48;;
31424;SDS011;18054;51.572;7.372;2023-10-08T10:06:21;4.68;;;0.93;;
31424;SDS011;18054;51.572;7.372;2023-10-08T10:08:49;2.33;;;0.70;;
31424;SDS011;18054;51.572;7.372;2023-10-08T10:11:17;3.63;;;0.98;;
31424;SDS011;18054;51.572;7.372;2023-10-08T10:13:45;3.05;;;0.90;;
31424;SDS011;18054;51.572;7.372;2023-10-08T10:16:19;5.63;;;1.20;;
31424;SDS011;18054;51.572;7.372;2023-10-08T10:18:48;8.55;;;2.40;;
31424;SDS011;18054;51.572;7.372;2023-10-08T10:21:26;4.53;;;0.82;;
31424;SDS011;18054;51.572;7.372;2023-10-08T10:23:55;7.03;;;1.52;;
31424;SDS011;18054;51.572;7.372;2023-10-08T10:26:24;4.07;;;0.93;;
31424;SDS011;18054;51.572;7.372;2023-10-08T10:31:43;7.30;;;1.10;;
31424;SDS011;18054;51.572;7.372;2023-10-08T10:34:11;7.28;;;1.40;;
31424;SDS011;18054;51.572;7.372;2023-10-08T10:36:40;9.48;;;1.38;;
31424;SDS011;18054;51.572;7.372;2023-10-08T10:39:08;7.75;;;1.33;;
31424;SDS011;18054;51.572;7.372;2023-10-08T10:41:43;6.75;;;1.48;;
31424;SDS011;18054;51.572;7.372;2023-10-08T10:44:11;10.48;;;1.52;;
31424;SDS011;18054;51.572;7.372;2023-10-08T10:46:41;6.30;;;0.95;;
31424;SDS011;18054;51.572;7.372;2023-10-08T10:49:10;20.85;;;1.70;;
31424;SDS011;18054;51.572;7.372;2023-10-08T10:51:49;6.28;;;1.17;;
31424;SDS011;18054;51.572;7.372;2023-10-08T10:54:23;9.20;;;1.25;;
31424;SDS011;18054;51.572;7.372;2023-10-08T10:56:51;5.30;;;1.13;;
31424;SDS011;18054;51.572;7.372;2023-10-08T10:59:30;11.05;;;1.45;;
31424;SDS011;18054;51.572;7.372;2023-10-08T11:02:06;3.88;;;0.80;;
31424;SDS011;18054;51.572;7.372;2023-10-08T11:07:15;3.95;;;0.85;;
31424;SDS011;18054;51.572;7.372;2023-10-08T11:09:44;8.48;;;1.23;;
31424;SDS011;18054;51.572;7.372;2023-10-08T11:12:12;6.10;;;1.05;;
31424;SDS011;18054;51.572;7.372;2023-10-08T11:14:46;4.00;;;0.90;;
31424;SDS011;18054;51.572;7.372;2023-10-08T11:17:13;3.72;;;0.90;;
31424;SDS011;18054;51.572;7.372;2023-10-08T11:19:41;4.20;;;1.00;;
31424;SDS011;18054;51.572;7.372;2023-10-08T11:22:12;4.45;;;1.05;;
31424;SDS011;18054;51.572;7.372;2023-10-08T11:24:58;9.13;;;1.10;;
31424;SDS011;18054;51.572;7.372;2023-10-08T11:27:50;3.92;;;0.90;;
31424;SDS011;18054;51.572;7.372;2023-10-08T11:30:24;3.17;;;0.70;;
31424;SDS011;18054;51.572;7.372;2023-10-08T11:32:57;7.07;;;0.88;;
31424;SDS011;18054;51.572;7.372;2023-10-08T11:35:25;5.45;;;1.20;;
31424;SDS011;18054;51.572;7.372;2023-10-08T11:37:57;3.42;;;1.00;;
31424;SDS011;18054;51.572;7.372;2023-10-08T11:40:28;4.13;;;0.70;;
31424;SDS011;18054;51.572;7.372;2023-10-08T11:43:13;7.75;;;1.30;;
31424;SDS011;18054;51.572;7.372;2023-10-08T11:45:42;6.50;;;0.98;;
31424;SDS011;18054;51.572;7.372;2023-10-08T11:48:14;4.20;;;0.90;;
31424;SDS011;18054;51.572;7.372;2023-10-08T11:50:48;5.15;;;0.90;;
31424;SDS011;18054;51.572;7.372;2023-10-08T11:53:17;5.72;;;0.93;;
31424;SDS011;18054;51.572;7.372;2023-10-08T11:55:47;5.47;;;1.73;;
31424;SDS011;18054;51.572;7.372;2023-10-08T11:58:15;7.88;;;1.23;;
31424;SDS011;18054;51.572;7.372;2023-10-08T12:00:46;3.08;;;0.85;;
31424;SDS011;18054;51.572;7.372;2023-10-08T12:03:19;3.55;;;0.73;;
31424;SDS011;18054;51.572;7.372;2023-10-08T12:05:48;5.55;;;1.17;;
31424;SDS011;18054;51.572;7.372;2023-10-08T12:08:17;3.53;;;0.90;;
31424;SDS011;18054;51.572;7.372;2023-10-08T12:10:48;5.70;;;0.90;;
31424;SDS011;18054;51.572;7.372;2023-10-08T12:13:20;5.90;;;1.02;;
31424;SDS011;18054;51.572;7.372;2023-10-08T12:15:51;5.88;;;1.05;;
31424;SDS011;18054;51.572;7.372;2023-10-08T12:18:19;3.05;;;0.80;;
31424;SDS011;18054;51.572;7.372;2023-10-08T12:20:52;6.07;;;1.08;;
31424;SDS011;18054;51.572;7.372;2023-10-08T12:23:20;7.55;;;1.05;;
31424;SDS011;18054;51.572;7.372;2023-10-08T12:25:53;6.38;;;0.95;;
31424;SDS011;18054;51.572;7.372;2023-10-08T12:28:22;9.35;;;0.88;;
31424;SDS011;18054;51.572;7.372;2023-10-08T12:30:50;6.57;;;0.80;;
31424;SDS011;18054;51.572;7.372;2023-10-08T12:33:19;10.75;;;1.23;;
31424;SDS011;18054;51.572;7.372;2023-10-08T12:35:48;3.50;;;0.70;;
31424;SDS011;18054;51.572;7.372;2023-10-08T12:38:16;5.93;;;1.27;;
31424;SDS011;18054;51.572;7.372;2023-10-08T12:40:46;3.00;;;0.90;;
31424;SDS011;18054;51.572;7.372;2023-10-08T12:43:21;3.45;;;1.20;;
31424;SDS011;18054;51.572;7.372;2023-10-08T12:45:49;3.15;;;1.10;;
31424;SDS011;18054;51.572;7.372;2023-10-08T12:48:19;5.80;;;1.30;;
31424;SDS011;18054;51.572;7.372;2023-10-08T12:50:47;4.63;;;1.10;;
31424;SDS011;18054;51.572;7.372;2023-10-08T12:53:20;5.13;;;1.38;;
31424;SDS011;18054;51.572;7.372;2023-10-08T12:55:50;6.07;;;0.85;;
31424;SDS011;18054;51.572;7.372;2023-10-08T12:58:22;9.88;;;1.33;;
31424;SDS011;18054;51.572;7.372;2023-10-08T13:00:52;3.20;;;1.00;;
31424;SDS011;18054;51.572;7.372;2023-10-08T13:03:24;3.80;;;0.98;;
31424;SDS011;18054;51.572;7.372;2023-10-08T13:05:57;5.85;;;1.27;;
31424;SDS011;18054;51.572;7.372;2023-10-08T13:08:30;7.60;;;1.08;;
31424;SDS011;18054;51.572;7.372;2023-10-08T13:13:28;6.15;;;1.02;;
31424;SDS011;18054;51.572;7.372;2023-10-08T13:15:56;5.30;;;1.58;;
31424;SDS011;18054;51.572;7.372;2023-10-08T13:18:26;5.75;;;1.58;;
31424;SDS011;18054;51.572;7.372;2023-10-08T13:23:21;4.78;;;1.40;;
31424;SDS011;18054;51.572;7.372;2023-10-08T13:25:50;5.25;;;1.55;;
31424;SDS011;18054;51.572;7.372;2023-10-08T13:28:20;4.25;;;1.17;;
31424;SDS011;18054;51.572;7.372;2023-10-08T13:30:50;9.43;;;1.25;;
31424;SDS011;18054;51.572;7.372;2023-10-08T13:33:20;6.35;;;1.50;;
31424;SDS011;18054;51.572;7.372;2023-10-08T13:35:48;4.95;;;1.40;;
31424;SDS011;18054;51.572;7.372;2023-10-08T13:38:29;3.58;;;1.10;;
31424;SDS011;18054;51.572;7.372;2023-10-08T13:40:56;4.97;;;1.50;;
31424;SDS011;18054;51.572;7.372;2023-10-08T13:43:30;3.30;;;1.25;;
31424;SDS011;18054;51.572;7.372;2023-10-08T13:46:03;9.35;;;1.50;;
31424;SDS011;18054;51.572;7.372;2023-10-08T13:48:33;6.95;;;1.92;;
31424;SDS011;18054;51.572;7.372;2023-10-08T13:51:02;5.50;;;1.55;;
31424;SDS011;18054;51.572;7.372;2023-10-08T13:53:31;6.22;;;1.63;;
31424;SDS011;18054;51.572;7.372;2023-10-08T13:55:59;6.40;;;1.63;;
31424;SDS011;18054;51.572;7.372;2023-10-08T13:58:28;5.18;;;1.75;;
31424;SDS011;18054;51.572;7.372;2023-10-08T14:00:56;4.68;;;1.40;;
31424;SDS011;18054;51.572;7.372;2023-10-08T14:03:27;7.18;;;1.48;;
31424;SDS011;18054;51.572;7.372;2023-10-08T14:05:57;7.32;;;1.65;;
31424;SDS011;18054;51.572;7.372;2023-10-08T14:08:29;4.82;;;1.58;;
31424;SDS011;18054;51.572;7.372;2023-10-08T14:10:57;5.22;;;1.10;;
31424;SDS011;18054;51.572;7.372;2023-10-08T14:13:29;4.70;;;1.10;;
31424;SDS011;18054;51.572;7.372;2023-10-08T14:15:58;9.65;;;1.02;;
31424;SDS011;18054;51.572;7.372;2023-10-08T14:20:57;5.82;;;1.40;;
31424;SDS011;18054;51.572;7.372;2023-10-08T14:23:25;4.43;;;1.10;;
31424;SDS011;18054;51.572;7.372;2023-10-08T14:25:55;6.32;;;1.50;;
31424;SDS011;18054;51.572;7.372;2023-10-08T14:28:29;5.50;;;1.52;;
31424;SDS011;18054;51.572;7.372;2023-10-08T14:31:07;4.07;;;1.10;;
31424;SDS011;18054;51.572;7.372;2023-10-08T14:36:10;3.50;;;1.02;;
31424;SDS011;18054;51.572;7.372;2023-10-08T14:38:55;5.57;;;1.30;;
31424;SDS011;18054;51.572;7.372;2023-10-08T14:41:40;6.05;;;1.52;;
31424;SDS011;18054;51.572;7.372;2023-10-08T14:44:25;3.45;;;1.30;;
31424;SDS011;18054;51.572;7.372;2023-10-08T14:49:22;3.35;;;1.20;;
31424;SDS011;18054;51.572;7.372;2023-10-08T14:54:21;7.55;;;1.65;;
31424;SDS011;18054;51.572;7.372;2023-10-08T14:56:48;5.82;;;1.55;;
31424;SDS011;18054;51.572;7.372;2023-10-08T14:59:16;7.30;;;1.42;;
31424;SDS011;18054;51.572;7.372;2023-10-08T15:01:44;4.38;;;1.42;;
31424;SDS011;18054;51.572;7.372;2023-10-08T15:04:13;10.07;;;1.33;;
31424;SDS011;18054;51.572;7.372;2023-10-08T15:06:41;6.18;;;1.40;;
31424;SDS011;18054;51.572;7.372;2023-10-08T15:09:09;16.20;;;1.38;;
31424;SDS011;18054;51.572;7.372;2023-10-08T15:14:16;5.32;;;1.58;;
31424;SDS011;18054;51.572;7.372;2023-10-08T15:16:45;5.10;;;1.52;;
31424;SDS011;18054;51.572;7.372;2023-10-08T15:21:41;4.28;;;1.10;;
31424;SDS011;18054;51.572;7.372;2023-10-08T15:24:09;5.78;;;1.40;;
31424;SDS011;18054;51.572;7.372;2023-10-08T15:26:40;5.95;;;1.10;;
31424;SDS011;18054;51.572;7.372;2023-10-08T15:29:07;6.57;;;1.45;;
31424;SDS011;18054;51.572;7.372;2023-10-08T15:31:37;8.30;;;1.70;;
31424;SDS011;18054;51.572;7.372;2023-10-08T15:34:07;5.13;;;1.35;;
31424;SDS011;18054;51.572;7.372;2023-10-08T15:36:50;6.68;;;1.38;;
31424;SDS011;18054;51.572;7.372;2023-10-08T15:39:18;4.22;;;1.27;;
31424;SDS011;18054;51.572;7.372;2023-10-08T15:41:49;5.53;;;1.58;;
31424;SDS011;18054;51.572;7.372;2023-10-08T15:44:16;5.30;;;1.75;;
31424;SDS011;18054;51.572;7.372;2023-10-08T15:46:48;4.68;;;1.50;;
31424;SDS011;18054;51.572;7.372;2023-10-08T15:49:16;5.40;;;1.63;;
31424;SDS011;18054;51.572;7.372;2023-10-08T15:51:45;3.63;;;1.45;;